createdAt,value
2016-12-14T00:00:04.276Z,0
2016-12-14T00:05:04.035Z,0
2016-12-14T00:10:04.082Z,0
2016-12-14T00:15:04.982Z,0
2016-12-14T00:20:04.878Z,0
2016-12-14T00:25:04.448Z,0
2016-12-14T00:30:05.054Z,0
2016-12-14T00:35:04.441Z,0
2016-12-14T00:40:04.412Z,0
2016-12-14T00:45:04.595Z,0
2016-12-14T00:50:04.444Z,0
2016-12-14T00:55:04.857Z,0
2016-12-14T01:00:04.476Z,0
2016-12-14T01:05:04.697Z,0
2016-12-14T01:10:04.272Z,0
2016-12-14T01:15:04.207Z,0
2016-12-14T01:20:04.874Z,0
2016-12-14T01:25:04.794Z,0
2016-12-14T01:30:04.095Z,0
2016-12-14T01:35:04.249Z,0
2016-12-14T01:40:05.075Z,0
2016-12-14T01:45:05.066Z,0
2016-12-14T01:50:04.811Z,0
2016-12-14T01:55:04.333Z,0
2016-12-14T02:00:04.625Z,0
2016-12-14T02:05:04.747Z,0
2016-12-14T02:10:05.092Z,0
2016-12-14T02:15:04.475Z,0
2016-12-14T02:20:04.677Z,0
2016-12-14T02:25:05.018Z,0
2016-12-14T02:30:04.308Z,0
2016-12-14T02:35:05.067Z,0
2016-12-14T02:40:04.844Z,0
2016-12-14T02:45:04.297Z,0
2016-12-14T02:50:04.817Z,0
2016-12-14T02:55:04.837Z,0
2016-12-14T03:00:05.087Z,0
2016-12-14T03:05:04.937Z,0
2016-12-14T03:10:04.158Z,0
2016-12-14T03:15:04.423Z,0
2016-12-14T03:20:04.588Z,0
2016-12-14T03:25:04.225Z,0
2016-12-14T03:30:04.828Z,0
2016-12-14T03:35:04.315Z,0
2016-12-14T03:40:04.993Z,0
2016-12-14T03:45:04.766Z,0
2016-12-14T03:50:04.407Z,0
2016-12-14T03:55:04.950Z,0
2016-12-14T04:00:04.401Z,0
2016-12-14T04:05:04.519Z,0
2016-12-14T04:10:04.923Z,0
2016-12-14T04:15:04.298Z,0
2016-12-14T04:20:04.647Z,0
2016-12-14T04:25:04.146Z,0
2016-12-14T04:30:04.611Z,0
2016-12-14T04:35:04.217Z,0
2016-12-14T04:40:04.290Z,0
2016-12-14T04:45:04.756Z,0
2016-12-14T04:50:04.024Z,0
2016-12-14T04:55:05.241Z,0
2016-12-14T05:00:04.935Z,0
2016-12-14T05:05:04.891Z,0
2016-12-14T05:10:04.113Z,0
2016-12-14T05:15:05.096Z,0
2016-12-14T05:20:05.011Z,0
2016-12-14T05:25:04.295Z,0
2016-12-14T05:30:04.264Z,0
2016-12-14T05:35:04.248Z,0
2016-12-14T05:40:04.394Z,0
2016-12-14T05:45:04.321Z,0
2016-12-14T05:50:04.390Z,0
2016-12-14T05:55:04.771Z,0
2016-12-14T06:00:03.873Z,0
2016-12-14T06:05:04.697Z,0
2016-12-14T06:10:04.195Z,0
2016-12-14T06:15:04.546Z,0
2016-12-14T06:20:04.178Z,0
2016-12-14T06:25:05.039Z,0
2016-12-14T06:30:04.091Z,0
2016-12-14T06:35:05.310Z,0
2016-12-14T06:40:05.158Z,0
2016-12-14T06:45:04.405Z,0
2016-12-14T06:50:04.357Z,0
2016-12-14T06:55:04.152Z,1
2016-12-14T07:00:04.192Z,2
2016-12-14T07:05:04.269Z,4
2016-12-14T07:10:04.920Z,8
2016-12-14T07:15:05.470Z,20
2016-12-14T07:20:04.444Z,36
2016-12-14T07:25:04.940Z,46
2016-12-14T07:30:04.982Z,55
2016-12-14T07:35:04.828Z,65
2016-12-14T07:40:05.066Z,91
2016-12-14T07:45:04.841Z,142
2016-12-14T07:50:04.203Z,251
2016-12-14T07:55:04.531Z,322
2016-12-14T08:00:04.573Z,272
2016-12-14T08:05:04.906Z,323
2016-12-14T08:10:04.928Z,452
2016-12-14T08:15:04.786Z,507
2016-12-14T08:20:04.967Z,628
2016-12-14T08:25:04.738Z,662
2016-12-14T08:30:04.920Z,638
2016-12-14T08:35:04.892Z,682
2016-12-14T08:40:04.232Z,656
2016-12-14T08:45:04.833Z,595
2016-12-14T08:50:04.403Z,631
2016-12-14T08:55:04.767Z,727
2016-12-14T09:00:04.631Z,1000
2016-12-14T09:05:04.863Z,1000
2016-12-14T09:10:04.903Z,2000
2016-12-14T09:15:04.435Z,2000
2016-12-14T09:20:04.842Z,2000
2016-12-14T09:25:04.230Z,2000
2016-12-14T09:30:04.995Z,1000
2016-12-14T09:35:04.287Z,1000
2016-12-14T09:40:04.980Z,1000
2016-12-14T09:45:04.500Z,2000
2016-12-14T09:50:04.639Z,1000
2016-12-14T09:55:03.986Z,1000
2016-12-14T10:00:04.858Z,2000
2016-12-14T10:05:04.339Z,2000
2016-12-14T10:10:04.230Z,2000
2016-12-14T10:15:04.707Z,3000
2016-12-14T10:20:04.214Z,3000
2016-12-14T10:25:04.636Z,3000
2016-12-14T10:30:04.920Z,3000
2016-12-14T10:35:04.172Z,3000
2016-12-14T10:40:05.114Z,2000
2016-12-14T10:45:04.066Z,2000
2016-12-14T10:50:04.887Z,3000
2016-12-14T10:55:04.874Z,3000
2016-12-14T11:00:05.035Z,4000
2016-12-14T11:05:05.051Z,4000
2016-12-14T11:10:04.451Z,4000
2016-12-14T11:15:03.896Z,4000
2016-12-14T11:20:04.689Z,4000
2016-12-14T11:25:04.832Z,4000
2016-12-14T11:30:04.917Z,3000
2016-12-14T11:35:04.380Z,4000
2016-12-14T11:40:04.486Z,4000
2016-12-14T11:45:04.842Z,4000
2016-12-14T11:50:04.894Z,5000
2016-12-14T11:55:04.782Z,4000
2016-12-14T12:00:04.164Z,3000
2016-12-14T12:05:04.370Z,3000
2016-12-14T12:10:04.417Z,3000
2016-12-14T12:15:04.681Z,3000
2016-12-14T12:20:04.216Z,4000
2016-12-14T12:25:04.454Z,5000
2016-12-14T12:30:04.320Z,4000
2016-12-14T12:35:04.416Z,4000
2016-12-14T12:40:04.769Z,4000
2016-12-14T12:45:04.768Z,3000
2016-12-14T12:50:04.756Z,3000
2016-12-14T12:55:03.976Z,4000
2016-12-14T13:00:04.189Z,4000
2016-12-14T13:05:04.245Z,4000
2016-12-14T13:10:04.586Z,5000
2016-12-14T13:15:03.996Z,5000
2016-12-14T13:20:04.448Z,5000
2016-12-14T13:25:04.429Z,6000
2016-12-14T13:30:04.786Z,6000
2016-12-14T13:35:03.997Z,6000
2016-12-14T13:40:04.487Z,6000
2016-12-14T13:45:04.217Z,5000
2016-12-14T13:50:04.553Z,4000
2016-12-14T13:55:04.840Z,4000
2016-12-14T14:00:04.285Z,4000
2016-12-14T14:05:04.644Z,4000
2016-12-14T14:10:04.759Z,4000
2016-12-14T14:15:03.857Z,4000
2016-12-14T14:20:04.381Z,4000
2016-12-14T14:25:04.326Z,3000
2016-12-14T14:30:04.078Z,3000
2016-12-14T14:35:04.116Z,3000
2016-12-14T14:40:03.997Z,2000
2016-12-14T14:45:04.029Z,1000
2016-12-14T14:50:04.509Z,1000
2016-12-14T14:55:04.879Z,1000
2016-12-14T15:00:04.579Z,851
2016-12-14T15:05:04.694Z,632
2016-12-14T15:10:04.200Z,501
2016-12-14T15:15:04.749Z,369
2016-12-14T15:20:04.707Z,236
2016-12-14T15:25:04.616Z,81
2016-12-14T15:30:04.855Z,67
2016-12-14T15:35:04.168Z,54
2016-12-14T15:40:04.765Z,42
2016-12-14T15:45:04.692Z,26
2016-12-14T15:50:04.394Z,15
2016-12-14T15:55:04.234Z,7
2016-12-14T16:00:03.941Z,2
2016-12-14T16:05:04.554Z,1
2016-12-14T16:10:04.394Z,1
2016-12-14T16:15:04.313Z,0
2016-12-14T16:20:04.201Z,0
2016-12-14T16:25:04.696Z,0
2016-12-14T16:30:04.096Z,0
2016-12-14T16:35:04.582Z,0
2016-12-14T16:40:04.669Z,0
2016-12-14T16:45:04.518Z,0
2016-12-14T16:50:04.977Z,0
2016-12-14T16:55:04.304Z,0
2016-12-14T17:00:05.533Z,0
2016-12-14T17:05:04.975Z,0
2016-12-14T17:10:04.605Z,0
2016-12-14T17:15:04.957Z,0
2016-12-14T17:20:04.090Z,0
2016-12-14T17:25:04.708Z,0
2016-12-14T17:30:05.097Z,0
2016-12-14T17:35:04.615Z,0
2016-12-14T17:40:04.288Z,0
2016-12-14T17:45:04.422Z,0
2016-12-14T17:50:04.260Z,0
2016-12-14T17:55:04.654Z,0
2016-12-14T18:00:04.907Z,0
2016-12-14T18:05:04.643Z,0
2016-12-14T18:10:04.574Z,0
2016-12-14T18:15:04.182Z,0
2016-12-14T18:20:04.945Z,0
2016-12-14T18:25:04.539Z,0
2016-12-14T18:30:04.671Z,0
2016-12-14T18:35:04.487Z,0
2016-12-14T18:40:04.443Z,0
2016-12-14T18:45:04.572Z,0
2016-12-14T18:50:04.485Z,0
2016-12-14T18:55:04.988Z,0
2016-12-14T19:00:04.121Z,0
2016-12-14T19:05:04.523Z,0
2016-12-14T19:10:04.564Z,0
2016-12-14T19:15:04.340Z,0
2016-12-14T19:20:05.000Z,0
2016-12-14T19:25:04.345Z,0
2016-12-14T19:30:04.574Z,0
2016-12-14T19:35:05.033Z,0
2016-12-14T19:40:04.375Z,0
2016-12-14T19:45:04.643Z,0
2016-12-14T19:50:04.036Z,0
2016-12-14T19:55:04.121Z,0
2016-12-14T20:00:04.163Z,0
2016-12-14T20:05:05.031Z,0
2016-12-14T20:10:04.581Z,0
2016-12-14T20:15:04.347Z,0
2016-12-14T20:20:04.804Z,0
2016-12-14T20:25:04.633Z,0
2016-12-14T20:30:04.500Z,0
2016-12-14T20:35:04.408Z,0
2016-12-14T20:40:04.107Z,0
2016-12-14T20:45:04.849Z,0
2016-12-14T20:50:04.644Z,0
2016-12-14T20:55:04.542Z,0
2016-12-14T21:00:04.820Z,0
2016-12-14T21:05:04.716Z,0
2016-12-14T21:10:04.254Z,0
2016-12-14T21:15:04.477Z,0
2016-12-14T21:20:04.909Z,0
2016-12-14T21:25:04.476Z,0
2016-12-14T21:30:05.056Z,0
2016-12-14T21:35:04.826Z,0
2016-12-14T21:40:04.704Z,0
2016-12-14T21:45:04.227Z,0
2016-12-14T21:50:04.610Z,0
2016-12-14T21:55:05.192Z,0
2016-12-14T22:00:04.572Z,0
2016-12-14T22:05:04.081Z,0
2016-12-14T22:10:04.765Z,0
2016-12-14T22:15:04.474Z,0
2016-12-14T22:20:04.051Z,0
2016-12-14T22:25:04.563Z,0
2016-12-14T22:30:04.730Z,0
2016-12-14T22:35:04.955Z,0
2016-12-14T22:40:04.403Z,0
2016-12-14T22:45:04.882Z,0
2016-12-14T22:50:04.290Z,0
2016-12-14T22:55:04.463Z,0
2016-12-14T23:00:04.309Z,0
2016-12-14T23:05:04.230Z,0
2016-12-14T23:10:04.417Z,0
2016-12-14T23:15:04.749Z,0
2016-12-14T23:20:04.846Z,0
2016-12-14T23:25:04.368Z,0
2016-12-14T23:30:04.672Z,0
2016-12-14T23:35:04.138Z,0
2016-12-14T23:40:04.957Z,0
2016-12-14T23:45:04.251Z,0
2016-12-14T23:50:04.254Z,0
2016-12-14T23:55:04.356Z,0
